Burbank, Washington
Current Conditions -  °F | °C
As of 10:53 PM on Saturday 22 Nov 2014 (Local Time) from KPSC Reporting Station
Clear Clear  
Wind Chill: 33°   Ceiling: Unl
Heat Index: 41°   Visibility: 10mi
Dew Point: 34°   Wind: 16mph
Humidity: 76%   Direction: 230°SW
Pressure: 30.11"   Gusts: NA
Location:  46.2°N, 119.02°W
Report Text: KPSC 230653Z AUTO 23014KT 10SM CLR 05/01 A3011 RMK AO2 SLP197 T00500011
Loading
Personal Weather Stations






























Interactive Weather Map New forecast layout! Learn more

10-Day Weather Forecast

Advertisements
Track Severe Weather on mobile